createdAt,value
2018-02-12T00:00:42.334Z,84.61
2018-02-12T00:03:09.984Z,85.01
2018-02-12T00:05:37.517Z,84.94
2018-02-12T00:08:05.601Z,85.31
2018-02-12T00:10:33.120Z,85.49
2018-02-12T00:13:00.670Z,85.96
2018-02-12T00:15:28.251Z,84.79
2018-02-12T00:17:55.798Z,85.19
2018-02-12T00:20:23.455Z,84.73
2018-02-12T00:22:51.127Z,85.19
2018-02-12T00:25:18.683Z,84.99
2018-02-12T00:27:46.259Z,84.81
2018-02-12T00:30:13.766Z,85.06
2018-02-12T00:32:41.291Z,84.80
2018-02-12T00:35:08.818Z,84.77
2018-02-12T00:37:36.348Z,84.01
2018-02-12T00:40:03.940Z,83.95
2018-02-12T00:42:31.475Z,84.26
2018-02-12T00:44:59.026Z,84.17
2018-02-12T00:47:26.528Z,84.32
2018-02-12T00:49:54.082Z,84.74
2018-02-12T00:52:21.616Z,85.13
2018-02-12T00:54:49.187Z,85.40
2018-02-12T00:57:16.687Z,84.48
2018-02-12T00:59:44.181Z,85.07
2018-02-12T01:02:11.739Z,85.44
2018-02-12T01:04:39.266Z,85.40
2018-02-12T01:07:06.796Z,85.01
2018-02-12T01:09:34.299Z,85.60
2018-02-12T01:12:01.851Z,85.04
2018-02-12T01:14:29.456Z,85.81
2018-02-12T01:16:57.022Z,85.41
2018-02-12T01:19:24.530Z,85.57
2018-02-12T01:21:52.134Z,85.77
2018-02-12T01:24:19.638Z,85.96
2018-02-12T01:26:47.160Z,85.44
2018-02-12T01:29:14.717Z,85.30
2018-02-12T01:31:42.218Z,85.65
2018-02-12T01:34:09.770Z,85.15
2018-02-12T01:36:37.279Z,84.80
2018-02-12T01:39:05.850Z,85.05
2018-02-12T01:41:33.358Z,84.74
2018-02-12T01:44:00.911Z,84.51
2018-02-12T01:46:28.433Z,84.46
2018-02-12T01:48:56.113Z,84.89
2018-02-12T01:51:23.636Z,84.99
2018-02-12T01:53:51.140Z,86.17
2018-02-12T01:56:18.799Z,85.95
2018-02-12T01:58:46.318Z,85.93
2018-02-12T02:01:13.862Z,85.81
2018-02-12T02:03:41.469Z,85.68
2018-02-12T02:06:09.027Z,85.53
2018-02-12T02:08:36.552Z,85.79
2018-02-12T02:11:04.104Z,85.43
2018-02-12T02:13:31.622Z,85.38
2018-02-12T02:15:59.264Z,85.64
2018-02-12T02:18:26.778Z,85.73
2018-02-12T02:20:54.312Z,85.11
2018-02-12T02:23:21.865Z,85.52
2018-02-12T02:25:49.366Z,85.31
2018-02-12T02:28:16.920Z,85.47
2018-02-12T02:30:44.445Z,85.36
2018-02-12T02:33:11.975Z,85.39
2018-02-12T02:35:39.536Z,85.56
2018-02-12T02:38:07.198Z,85.32
2018-02-12T02:40:34.732Z,85.48
2018-02-12T02:43:02.236Z,85.00
2018-02-12T02:45:29.889Z,85.43
2018-02-12T02:47:57.410Z,85.17
2018-02-12T02:50:24.940Z,84.78
2018-02-12T02:52:52.446Z,84.74
2018-02-12T02:55:19.995Z,85.51
2018-02-12T02:57:47.522Z,85.39
2018-02-12T03:00:15.129Z,85.65
2018-02-12T03:02:42.651Z,85.44
2018-02-12T03:05:10.357Z,85.49
2018-02-12T03:07:37.856Z,85.94
2018-02-12T03:10:06.288Z,85.81
2018-02-12T03:12:33.835Z,85.28
2018-02-12T03:15:01.363Z,85.58
2018-02-12T03:17:28.932Z,85.85
2018-02-12T03:19:56.517Z,86.00
2018-02-12T03:22:24.069Z,85.90
2018-02-12T03:24:51.646Z,85.99
2018-02-12T03:27:19.191Z,85.70
2018-02-12T03:29:46.725Z,85.69
2018-02-12T03:32:14.231Z,85.67
2018-02-12T03:34:41.884Z,86.32
2018-02-12T03:37:09.440Z,85.81
2018-02-12T03:39:37.104Z,85.16
2018-02-12T03:42:04.668Z,85.52
2018-02-12T03:44:32.214Z,85.24
2018-02-12T03:46:59.713Z,85.55
2018-02-12T03:49:27.248Z,85.22
2018-02-12T03:51:54.901Z,85.24
2018-02-12T03:54:22.499Z,85.11
2018-02-12T03:56:50.114Z,85.84
2018-02-12T03:59:17.630Z,84.97
2018-02-12T04:01:45.166Z,85.12
2018-02-12T04:04:12.809Z,85.59
2018-02-12T04:06:40.463Z,85.51
2018-02-12T04:09:08.019Z,85.33
2018-02-12T04:11:36.467Z,85.90
2018-02-12T04:14:03.969Z,85.87
2018-02-12T04:16:31.520Z,85.59
2018-02-12T04:18:59.076Z,85.86
2018-02-12T04:21:26.674Z,85.38
2018-02-12T04:23:54.196Z,85.38
2018-02-12T04:26:21.703Z,85.74
2018-02-12T04:28:49.255Z,85.84
2018-02-12T04:31:16.780Z,86.26
2018-02-12T04:33:44.335Z,85.91
2018-02-12T04:36:11.890Z,85.86
2018-02-12T04:38:39.448Z,85.62
2018-02-12T04:41:06.970Z,85.72
2018-02-12T04:43:34.518Z,85.09
2018-02-12T04:46:02.014Z,84.42
2018-02-12T04:48:29.594Z,83.71
2018-02-12T04:50:57.126Z,84.57
2018-02-12T04:53:24.807Z,83.86
2018-02-12T04:55:52.330Z,84.04
2018-02-12T04:58:19.924Z,83.35
2018-02-12T05:00:47.482Z,84.50
2018-02-12T05:03:15.045Z,83.98
2018-02-12T05:05:42.615Z,84.06
2018-02-12T05:08:10.168Z,83.39
2018-02-12T05:10:37.745Z,83.99
2018-02-12T05:13:05.325Z,83.77
2018-02-12T05:15:32.899Z,84.11
2018-02-12T05:18:00.422Z,82.95
2018-02-12T05:20:27.979Z,83.51
2018-02-12T05:22:55.505Z,82.40
2018-02-12T05:25:23.085Z,81.58
2018-02-12T05:27:50.640Z,82.80
2018-02-12T05:30:18.302Z,82.90
2018-02-12T05:32:45.939Z,83.41
2018-02-12T05:35:13.441Z,82.71
2018-02-12T05:37:40.996Z,82.29
2018-02-12T05:40:08.549Z,82.86
2018-02-12T05:42:36.917Z,83.19
2018-02-12T05:45:04.476Z,83.36
2018-02-12T05:47:32.026Z,82.72
2018-02-12T05:49:59.531Z,82.12
2018-02-12T05:52:27.078Z,83.00
2018-02-12T05:54:54.615Z,82.70
2018-02-12T05:57:22.161Z,82.34
2018-02-12T05:59:49.714Z,82.51
2018-02-12T06:02:17.217Z,81.79
2018-02-12T06:04:44.770Z,81.94
2018-02-12T06:07:12.595Z,82.44
2018-02-12T06:09:40.142Z,82.42
2018-02-12T06:12:08.025Z,82.02
2018-02-12T06:14:35.573Z,82.23
2018-02-12T06:17:03.100Z,83.21
2018-02-12T06:19:30.678Z,82.77
2018-02-12T06:21:58.187Z,82.92
2018-02-12T06:24:25.711Z,82.54
2018-02-12T06:26:53.258Z,82.33
2018-02-12T06:29:20.850Z,81.99
2018-02-12T06:31:48.410Z,82.91
2018-02-12T06:34:15.945Z,82.12
2018-02-12T06:36:43.843Z,83.65
2018-02-12T06:39:11.346Z,83.13
2018-02-12T06:41:38.904Z,82.66
2018-02-12T06:44:06.530Z,83.10
2018-02-12T06:46:34.222Z,83.36
2018-02-12T06:49:01.783Z,82.63
2018-02-12T06:51:29.409Z,82.46
2018-02-12T06:53:57.065Z,82.62
2018-02-12T06:56:24.617Z,82.17
2018-02-12T06:58:52.167Z,82.32
2018-02-12T07:01:19.694Z,83.48
2018-02-12T07:03:47.521Z,83.07
2018-02-12T07:06:15.025Z,83.06
2018-02-12T07:08:42.627Z,82.00
2018-02-12T07:11:10.171Z,83.21
2018-02-12T07:13:37.980Z,82.62
2018-02-12T07:16:05.510Z,82.45
2018-02-12T07:18:33.058Z,82.91
2018-02-12T07:21:00.633Z,83.19
2018-02-12T07:23:28.162Z,83.75
2018-02-12T07:25:55.694Z,84.13
2018-02-12T07:28:23.218Z,83.91
2018-02-12T07:30:50.770Z,83.85
2018-02-12T07:33:18.313Z,84.46
2018-02-12T07:35:45.852Z,84.27
2018-02-12T07:38:13.439Z,84.25
2018-02-12T07:40:40.975Z,83.90
2018-02-12T07:43:09.111Z,84.43
2018-02-12T07:45:36.811Z,85.41
2018-02-12T07:48:04.434Z,85.50
2018-02-12T07:50:31.992Z,84.70
2018-02-12T07:52:59.515Z,84.25
2018-02-12T07:55:27.019Z,85.38
2018-02-12T07:57:54.623Z,84.68
2018-02-12T08:00:22.184Z,84.33
2018-02-12T08:02:53.762Z,83.34
2018-02-12T08:05:21.625Z,83.94
2018-02-12T08:07:49.180Z,83.71
2018-02-12T08:10:16.682Z,84.18
2018-02-12T08:12:44.254Z,83.50
2018-02-12T08:15:11.763Z,83.54
2018-02-12T08:17:39.589Z,83.16
2018-02-12T08:20:10.646Z,82.95
2018-02-12T08:22:39.043Z,83.42
2018-02-12T08:25:06.596Z,82.74
2018-02-12T08:27:34.122Z,83.23
2018-02-12T08:30:02.300Z,82.42
2018-02-12T08:32:30.030Z,82.20
2018-02-12T08:34:57.579Z,82.03
2018-02-12T08:37:25.212Z,81.78
2018-02-12T08:39:52.763Z,82.85
2018-02-12T08:42:22.172Z,82.50
2018-02-12T08:44:49.928Z,82.07
2018-02-12T08:47:18.882Z,81.97
2018-02-12T08:49:46.419Z,81.65
2018-02-12T08:52:16.534Z,81.19
2018-02-12T08:54:44.373Z,81.03
2018-02-12T08:57:11.924Z,81.55
2018-02-12T08:59:39.790Z,82.23
2018-02-12T09:02:07.337Z,84.49
2018-02-12T09:04:34.854Z,84.28
2018-02-12T09:07:02.387Z,83.70
2018-02-12T09:09:29.910Z,83.15
2018-02-12T09:11:57.439Z,82.17
2018-02-12T09:14:24.967Z,82.03
2018-02-12T09:16:52.519Z,83.33
2018-02-12T09:19:20.042Z,83.47
2018-02-12T09:21:48.548Z,81.35
2018-02-12T09:24:16.074Z,81.04
2018-02-12T09:26:43.601Z,80.59
2018-02-12T09:29:11.152Z,81.23
2018-02-12T09:31:38.708Z,81.21
2018-02-12T09:34:09.754Z,80.67
2018-02-12T09:36:37.488Z,81.32
2018-02-12T09:39:05.090Z,81.09
2018-02-12T09:41:32.737Z,79.87
2018-02-12T09:44:00.268Z,78.63
2018-02-12T09:46:27.999Z,79.93
2018-02-12T09:48:55.593Z,77.66
2018-02-12T09:51:23.102Z,79.25
2018-02-12T09:53:51.252Z,78.53
2018-02-12T09:56:18.880Z,79.02
2018-02-12T09:58:46.481Z,77.72
2018-02-12T10:01:14.010Z,78.17
2018-02-12T10:03:41.552Z,79.70
2018-02-12T10:06:10.042Z,78.50
2018-02-12T10:08:37.593Z,77.84
2018-02-12T10:11:05.253Z,78.04
2018-02-12T10:13:32.812Z,77.25
2018-02-12T10:16:00.474Z,77.65
2018-02-12T10:18:27.996Z,77.49
2018-02-12T10:20:57.962Z,76.24
2018-02-12T10:23:28.931Z,77.08
2018-02-12T10:25:59.106Z,76.58
2018-02-12T10:28:30.206Z,76.65
2018-02-12T10:31:00.466Z,75.98
2018-02-12T10:33:31.417Z,76.51
2018-02-12T10:36:02.053Z,75.26
2018-02-12T10:38:32.918Z,76.93
2018-02-12T10:41:02.873Z,75.58
2018-02-12T10:43:33.199Z,73.35
2018-02-12T10:46:03.893Z,75.24
2018-02-12T10:48:33.681Z,74.74
2018-02-12T10:51:04.531Z,75.85
2018-02-12T10:53:34.848Z,73.51
2018-02-12T10:56:04.557Z,73.93
2018-02-12T10:58:35.236Z,73.79
2018-02-12T11:01:04.111Z,72.48
2018-02-12T11:03:34.050Z,73.21
2018-02-12T11:06:03.739Z,71.49
2018-02-12T11:08:32.774Z,73.29
2018-02-12T11:11:01.801Z,72.63
2018-02-12T11:13:30.861Z,71.68
2018-02-12T11:15:59.958Z,71.94
2018-02-12T11:18:29.837Z,70.13
2018-02-12T11:20:58.875Z,70.73
2018-02-12T11:23:27.725Z,69.85
2018-02-12T11:25:58.388Z,68.89
2018-02-12T11:28:28.561Z,69.82
2018-02-12T11:30:58.931Z,68.22
2018-02-12T11:33:28.946Z,65.79
2018-02-12T11:35:59.094Z,65.60
2018-02-12T11:38:29.342Z,66.47
2018-02-12T11:40:59.420Z,65.16
2018-02-12T11:43:29.592Z,64.84
2018-02-12T11:46:00.500Z,64.94
2018-02-12T11:48:29.906Z,63.88
2018-02-12T11:51:00.741Z,67.15
2018-02-12T11:53:31.904Z,64.37
2018-02-12T11:56:03.019Z,62.85
2018-02-12T11:58:34.047Z,65.55
2018-02-12T12:01:04.202Z,68.25
2018-02-12T12:03:34.009Z,68.68
2018-02-12T12:06:04.420Z,65.30
2018-02-12T12:08:34.946Z,64.86
2018-02-12T12:11:04.934Z,64.33
2018-02-12T12:13:35.360Z,65.41
2018-02-12T12:16:05.064Z,66.07
2018-02-12T12:18:35.304Z,66.29
2018-02-12T12:21:06.271Z,64.75
2018-02-12T12:23:36.371Z,65.55
2018-02-12T12:26:06.262Z,65.78
2018-02-12T12:28:33.890Z,66.80
2018-02-12T12:31:01.490Z,64.64
2018-02-12T12:33:28.994Z,68.15
2018-02-12T12:35:56.550Z,62.91
2018-02-12T12:38:24.181Z,64.02
2018-02-12T12:40:52.442Z,67.25
2018-02-12T12:43:21.608Z,62.85
2018-02-12T12:45:49.868Z,65.06
2018-02-12T12:48:18.249Z,61.45
2018-02-12T12:50:46.489Z,60.76
2018-02-12T12:53:14.794Z,59.87
2018-02-12T12:55:43.089Z,60.90
2018-02-12T12:58:11.347Z,64.20
2018-02-12T13:00:40.343Z,63.95
2018-02-12T13:03:08.676Z,65.02
2018-02-12T13:05:36.908Z,64.43
2018-02-12T13:08:05.460Z,63.18
2018-02-12T13:10:33.747Z,67.73
2018-02-12T13:13:04.460Z,63.71
2018-02-12T13:15:35.135Z,63.57
2018-02-12T13:18:05.915Z,66.28
2018-02-12T13:20:37.539Z,63.64
2018-02-12T13:23:08.079Z,62.83
2018-02-12T13:25:40.137Z,62.24
2018-02-12T13:28:10.728Z,62.69
2018-02-12T13:30:41.495Z,64.04
2018-02-12T13:33:12.038Z,65.90
2018-02-12T13:35:42.604Z,63.83
2018-02-12T13:38:12.662Z,63.12
2018-02-12T13:40:43.457Z,61.80
2018-02-12T13:43:15.138Z,63.02
2018-02-12T13:45:45.206Z,62.26
2018-02-12T13:48:15.138Z,61.35
2018-02-12T13:50:44.957Z,61.27
2018-02-12T13:53:14.126Z,60.39
2018-02-12T13:55:44.438Z,57.49
2018-02-12T13:58:14.815Z,57.12
2018-02-12T14:00:45.034Z,58.04
2018-02-12T14:03:15.555Z,59.57
2018-02-12T14:05:45.557Z,61.54
2018-02-12T14:08:16.580Z,61.02
2018-02-12T14:10:46.643Z,60.37
2018-02-12T14:13:17.194Z,59.39
2018-02-12T14:15:47.368Z,59.30
2018-02-12T14:18:17.851Z,58.78
2018-02-12T14:20:48.583Z,59.34
2018-02-12T14:23:19.026Z,60.86
2018-02-12T14:25:50.125Z,56.96
2018-02-12T14:28:20.949Z,56.54
2018-02-12T14:30:51.364Z,58.24
2018-02-12T14:33:22.234Z,59.91
2018-02-12T14:35:52.435Z,58.80
2018-02-12T14:38:22.499Z,56.04
2018-02-12T14:40:52.430Z,56.46
2018-02-12T14:43:22.420Z,57.76
2018-02-12T14:45:52.402Z,59.96
2018-02-12T14:48:22.270Z,59.50
2018-02-12T14:50:51.767Z,57.97
2018-02-12T14:53:20.675Z,59.17
2018-02-12T14:55:51.379Z,58.03
2018-02-12T14:58:21.602Z,55.94
2018-02-12T15:00:52.409Z,56.39
2018-02-12T15:03:22.585Z,57.95
2018-02-12T15:05:56.095Z,56.26
2018-02-12T15:08:27.761Z,56.42
2018-02-12T15:10:57.414Z,57.64
2018-02-12T15:13:27.965Z,56.90
2018-02-12T15:15:59.605Z,58.86
2018-02-12T15:18:30.329Z,56.90
2018-02-12T15:21:00.403Z,59.80
2018-02-12T15:23:31.326Z,59.37
2018-02-12T15:26:03.779Z,57.71
2018-02-12T15:28:33.115Z,57.61
2018-02-12T15:31:04.316Z,57.76
2018-02-12T15:33:35.445Z,57.53
2018-02-12T15:36:06.290Z,60.17
2018-02-12T15:38:35.723Z,58.41
2018-02-12T15:41:04.295Z,58.66
2018-02-12T15:43:35.027Z,58.59
2018-02-12T15:46:06.315Z,58.86
2018-02-12T15:48:37.260Z,59.81
2018-02-12T15:51:08.106Z,58.04
2018-02-12T15:53:39.153Z,59.75
2018-02-12T15:56:09.844Z,59.03
2018-02-12T15:58:39.966Z,59.31
2018-02-12T16:01:12.161Z,58.60
2018-02-12T16:03:42.397Z,58.03
2018-02-12T16:06:12.920Z,59.42
2018-02-12T16:08:44.180Z,59.89
2018-02-12T16:11:14.924Z,60.62
2018-02-12T16:13:46.508Z,59.28
2018-02-12T16:16:17.696Z,60.00
2018-02-12T16:18:48.525Z,60.25
2018-02-12T16:21:19.078Z,59.83
2018-02-12T16:23:52.040Z,61.04
2018-02-12T16:26:22.358Z,62.24
2018-02-12T16:28:53.456Z,62.33
2018-02-12T16:31:24.815Z,62.72
2018-02-12T16:33:56.273Z,62.07
2018-02-12T16:36:26.841Z,60.99
2018-02-12T16:38:58.449Z,60.88
2018-02-12T16:41:28.968Z,61.17
2018-02-12T16:44:00.276Z,62.25
2018-02-12T16:46:30.391Z,62.19
2018-02-12T16:49:02.327Z,62.92
2018-02-12T16:51:32.940Z,62.22
2018-02-12T16:54:04.465Z,64.40
2018-02-12T16:56:36.782Z,64.10
2018-02-12T16:59:07.393Z,63.29
2018-02-12T17:01:37.918Z,63.98
2018-02-12T17:04:08.238Z,63.74
2018-02-12T17:06:38.819Z,64.42
2018-02-12T17:09:09.756Z,63.92
2018-02-12T17:11:41.489Z,64.38
2018-02-12T17:14:13.391Z,66.36
2018-02-12T17:16:43.555Z,65.93
2018-02-12T17:19:14.634Z,65.09
2018-02-12T17:21:44.417Z,65.54
2018-02-12T17:24:16.066Z,65.08
2018-02-12T17:26:46.471Z,66.68
2018-02-12T17:29:17.464Z,66.27
2018-02-12T17:31:48.445Z,65.98
2018-02-12T17:34:18.654Z,65.74
2018-02-12T17:36:49.302Z,65.93
2018-02-12T17:39:19.878Z,65.74
2018-02-12T17:41:51.926Z,66.42
2018-02-12T17:44:23.060Z,65.62
2018-02-12T17:46:53.880Z,66.76
2018-02-12T17:49:22.980Z,66.80
2018-02-12T17:51:51.466Z,66.07
2018-02-12T17:54:19.067Z,66.27
2018-02-12T17:56:48.484Z,66.70
2018-02-12T17:59:23.028Z,66.87
2018-02-12T18:01:51.632Z,66.45
2018-02-12T18:04:20.841Z,67.45
2018-02-12T18:06:49.524Z,66.47
2018-02-12T18:09:17.799Z,66.03
2018-02-12T18:11:48.730Z,66.05
2018-02-12T18:14:17.244Z,66.24
2018-02-12T18:16:45.588Z,66.35
2018-02-12T18:19:13.835Z,66.58
2018-02-12T18:21:43.844Z,66.32
2018-02-12T18:24:12.097Z,66.66
2018-02-12T18:26:44.306Z,66.88
2018-02-12T18:29:13.465Z,66.94
2018-02-12T18:31:41.813Z,67.24
2018-02-12T18:34:18.421Z,67.20
2018-02-12T18:36:50.056Z,67.24
2018-02-12T18:39:22.107Z,67.33
2018-02-12T18:41:55.560Z,68.13
2018-02-12T18:44:29.838Z,67.65
2018-02-12T18:47:04.910Z,68.18
2018-02-12T18:49:37.262Z,69.16
2018-02-12T18:52:10.090Z,70.35
2018-02-12T18:54:40.805Z,71.16
2018-02-12T18:57:12.757Z,71.55
2018-02-12T18:59:45.872Z,71.83
2018-02-12T19:02:19.661Z,72.31
2018-02-12T19:04:50.202Z,73.27
2018-02-12T19:07:19.796Z,74.54
2018-02-12T19:09:51.527Z,74.01
2018-02-12T19:12:21.334Z,73.85
2018-02-12T19:14:49.047Z,73.93
2018-02-12T19:17:16.842Z,74.39
2018-02-12T19:19:44.370Z,74.63
2018-02-12T19:22:11.923Z,74.74
2018-02-12T19:24:39.451Z,75.31
2018-02-12T19:27:07.003Z,75.10
2018-02-12T19:29:34.536Z,75.23
2018-02-12T19:32:02.107Z,75.81
2018-02-12T19:34:29.659Z,75.75
2018-02-12T19:36:57.186Z,75.61
2018-02-12T19:39:24.762Z,75.57
2018-02-12T19:41:52.318Z,75.24
2018-02-12T19:44:19.871Z,74.96
2018-02-12T19:46:47.420Z,75.57
2018-02-12T19:49:14.972Z,75.61
2018-02-12T19:51:42.502Z,75.95
2018-02-12T19:54:10.050Z,76.17
2018-02-12T19:56:37.578Z,76.47
2018-02-12T19:59:05.135Z,77.28
2018-02-12T20:01:32.681Z,76.80
2018-02-12T20:04:04.315Z,76.97
2018-02-12T20:06:33.272Z,77.66
2018-02-12T20:09:00.814Z,77.12
2018-02-12T20:11:28.366Z,77.00
2018-02-12T20:13:55.897Z,78.22
2018-02-12T20:16:24.825Z,77.93
2018-02-12T20:18:52.428Z,77.40
2018-02-12T20:21:19.983Z,77.42
2018-02-12T20:23:47.510Z,77.08
2018-02-12T20:26:15.085Z,77.17
2018-02-12T20:28:42.609Z,77.45
2018-02-12T20:31:10.210Z,77.74
2018-02-12T20:33:37.741Z,77.17
2018-02-12T20:36:05.315Z,77.62
2018-02-12T20:38:32.866Z,77.66
2018-02-12T20:41:00.398Z,77.70
2018-02-12T20:43:27.951Z,77.95
2018-02-12T20:45:55.519Z,77.76
2018-02-12T20:48:23.078Z,79.03
2018-02-12T20:50:50.632Z,78.61
2018-02-12T20:53:19.051Z,78.41
2018-02-12T20:55:46.611Z,78.29
2018-02-12T20:58:14.245Z,78.21
2018-02-12T21:00:41.795Z,78.16
2018-02-12T21:03:09.315Z,78.49
2018-02-12T21:05:36.902Z,78.37
2018-02-12T21:08:04.418Z,78.46
2018-02-12T21:10:31.977Z,78.92
2018-02-12T21:12:59.581Z,78.86
2018-02-12T21:15:27.170Z,79.12
2018-02-12T21:18:01.090Z,78.94
2018-02-12T21:20:38.158Z,78.36
2018-02-12T21:23:11.037Z,79.32
2018-02-12T21:25:44.730Z,78.96
2018-02-12T21:28:16.962Z,78.65
2018-02-12T21:30:50.824Z,78.77
2018-02-12T21:33:22.568Z,79.20
2018-02-12T21:35:54.452Z,79.37
2018-02-12T21:38:27.173Z,78.95
2018-02-12T21:41:00.691Z,79.01
2018-02-12T21:43:31.309Z,79.26
2018-02-12T21:46:01.381Z,79.17
2018-02-12T21:48:29.045Z,79.31
2018-02-12T21:50:57.333Z,79.34
2018-02-12T21:53:24.913Z,79.69
2018-02-12T21:55:52.540Z,79.88
2018-02-12T21:58:25.393Z,79.68
2018-02-12T22:00:55.702Z,80.26
2018-02-12T22:03:24.010Z,80.37
2018-02-12T22:05:53.493Z,80.53
2018-02-12T22:08:21.673Z,82.21
2018-02-12T22:10:49.617Z,81.96
2018-02-12T22:13:17.856Z,81.82
2018-02-12T22:15:46.103Z,81.16
2018-02-12T22:18:13.810Z,80.69
2018-02-12T22:20:44.412Z,80.46
2018-02-12T22:23:13.190Z,79.97
2018-02-12T22:25:40.743Z,79.74
2018-02-12T22:28:08.276Z,80.15
2018-02-12T22:30:35.847Z,80.07
2018-02-12T22:33:03.373Z,80.03
2018-02-12T22:35:30.951Z,80.32
2018-02-12T22:37:58.479Z,80.04
2018-02-12T22:40:26.080Z,80.35
2018-02-12T22:42:53.667Z,79.76
2018-02-12T22:45:21.188Z,80.36
2018-02-12T22:47:49.355Z,80.81
2018-02-12T22:50:16.892Z,80.69
2018-02-12T22:52:44.446Z,80.98
2018-02-12T22:55:13.067Z,81.41
2018-02-12T22:57:42.769Z,81.15
2018-02-12T23:00:11.154Z,80.93
2018-02-12T23:02:38.702Z,81.25
2018-02-12T23:05:06.304Z,80.54
2018-02-12T23:07:33.915Z,80.60
2018-02-12T23:10:02.011Z,80.19
2018-02-12T23:12:30.358Z,80.32
2018-02-12T23:14:58.056Z,80.40
2018-02-12T23:17:26.130Z,80.49
2018-02-12T23:19:54.382Z,80.84
2018-02-12T23:22:22.422Z,81.12
2018-02-12T23:24:50.127Z,81.60
2018-02-12T23:27:17.686Z,82.23
2018-02-12T23:29:47.137Z,81.94
2018-02-12T23:32:15.365Z,81.46
2018-02-12T23:34:43.107Z,81.45
2018-02-12T23:37:10.833Z,81.43
2018-02-12T23:39:38.858Z,80.83
2018-02-12T23:42:06.635Z,80.73
2018-02-12T23:44:34.337Z,81.37
2018-02-12T23:47:02.557Z,81.05
2018-02-12T23:49:30.421Z,80.61
2018-02-12T23:51:58.095Z,81.14
2018-02-12T23:54:26.566Z,80.96
2018-02-12T23:56:54.146Z,82.17
2018-02-12T23:59:22.201Z,81.67
